Atqasuk, Alaska
Current Conditions -  °F | °C
As of 5:56 AM on Monday 22 Dec 2014 (Local Time) from PATQ Reporting Station
Overcast Overcast  
Wind Chill: -13°   Ceiling: 2300
Heat Index: -1°   Visibility: 10mi
Dew Point: -4°   Wind: 6mph
Humidity: 87%   Direction: 230°SW
Pressure: 29.74"   Gusts: NA
Location:  70.47°N, 157.4°W
Report Text: PATQ 221456Z AUTO 23005KT 10SM OVC023 M18/M20 A2974 RMK AO2 TSNO 53007 T11831200 SLP080 $
Loading
Personal Weather Stations






























Interactive Weather Map New forecast layout! Learn more

10-Day Weather Forecast

Advertisements
Track Severe Weather on mobile